Time;durP1;ratioP1;P1;durP2;ratioP2;P2;SDS_P1;SDS_P2;PMS_P1;PMS_P2;Temp;Humidity;BMP_temperature;BMP_pressure;BME280_temperature;BME280_humidity;BME280_pressure;Samples;Min_cycle;Max_cycle;Signal;HPM_P1;HPM_P2
2021/06/07 00:00:46;;;;;;;0.40;0.20;;;16.20;99.90;;;;;;5130459;27;20685;-79
2021/06/07 00:03:12;;;;;;;0.40;0.20;;;16.10;99.90;;;;;;5131662;27;20843;-76
2021/06/07 00:05:38;;;;;;;0.40;0.20;;;16.10;99.90;;;;;;5131477;27;20874;-74
2021/06/07 00:08:04;;;;;;;0.40;0.30;;;16.00;99.90;;;;;;5130395;27;20419;-76
2021/06/07 00:10:30;;;;;;;0.40;0.30;;;16.00;99.90;;;;;;5131299;27;20417;-76
2021/06/07 00:12:56;;;;;;;0.40;0.30;;;16.10;99.90;;;;;;5130473;27;20987;-76
2021/06/07 00:15:24;;;;;;;0.40;0.20;;;16.00;99.90;;;;;;5112919;28;20893;-76
2021/06/07 00:17:50;;;;;;;0.40;0.20;;;16.10;99.90;;;;;;5130691;28;20391;-76
2021/06/07 00:20:27;;;;;;;0.40;0.30;;;16.00;99.90;;;;;;5131269;28;20862;-77
2021/06/07 00:22:53;;;;;;;0.40;0.30;;;15.90;99.90;;;;;;5130521;28;20375;-77
2021/06/07 00:25:19;;;;;;;0.40;0.30;;;15.80;99.90;;;;;;5131320;28;20692;-78
2021/06/07 00:27:44;;;;;;;0.40;0.20;;;15.70;99.90;;;;;;5130658;28;20869;-79
2021/06/07 00:30:11;;;;;;;0.40;0.30;;;15.80;99.90;;;;;;5130472;28;20735;-77
2021/06/07 00:32:36;;;;;;;0.40;0.20;;;15.80;99.90;;;;;;5112442;28;20446;-75
2021/06/07 00:35:03;;;;;;;0.40;0.20;;;15.90;99.90;;;;;;5130416;28;20491;-76
2021/06/07 00:37:28;;;;;;;0.40;0.20;;;15.80;99.90;;;;;;5131260;28;20415;-76
2021/06/07 00:39:54;;;;;;;0.40;0.20;;;15.80;99.90;;;;;;5130615;28;20465;-76
2021/06/07 00:42:20;;;;;;;0.40;0.20;;;15.80;99.90;;;;;;5131069;28;20374;-76
2021/06/07 00:44:46;;;;;;;0.40;0.20;;;15.80;99.90;;;;;;5130771;28;20373;-77
2021/06/07 00:47:12;;;;;;;0.40;0.20;;;15.80;99.90;;;;;;5130503;28;20378;-78
2021/06/07 00:49:38;;;;;;;0.40;0.20;;;15.80;99.90;;;;;;5130350;28;20749;-76
2021/06/07 00:52:04;;;;;;;0.40;0.20;;;15.70;99.90;;;;;;5126406;28;20375;-75
2021/06/07 00:54:30;;;;;;;0.40;0.30;;;15.70;99.90;;;;;;5130671;28;20494;-75
2021/06/07 00:56:56;;;;;;;0.40;0.20;;;15.70;99.90;;;;;;5130126;28;20539;-75
2021/06/07 00:59:21;;;;;;;0.40;0.20;;;15.70;99.90;;;;;;5130454;28;20378;-75
2021/06/07 01:01:47;;;;;;;0.40;0.30;;;15.80;99.90;;;;;;5130148;28;20371;-78
2021/06/07 01:04:13;;;;;;;0.40;0.20;;;15.80;99.90;;;;;;5111621;28;20466;-75
2021/06/07 01:06:39;;;;;;;0.40;0.20;;;15.80;99.90;;;;;;5131297;28;20383;-75
2021/06/07 01:09:06;;;;;;;0.40;0.30;;;15.80;99.90;;;;;;5111380;27;20394;-75
2021/06/07 01:11:33;;;;;;;0.40;0.30;;;15.90;99.90;;;;;;5134477;27;20383;-75
2021/06/07 01:13:59;;;;;;;0.40;0.20;;;15.90;99.90;;;;;;5133778;27;20409;-75
2021/06/07 01:16:24;;;;;;;0.40;0.20;;;15.80;99.90;;;;;;5134094;27;20903;-75
2021/06/07 01:18:51;;;;;;;0.40;0.20;;;15.80;99.90;;;;;;5134199;27;20405;-77
2021/06/07 01:21:19;;;;;;;0.40;0.20;;;15.80;99.90;;;;;;5134480;27;20375;-75
2021/06/07 01:23:47;;;;;;;0.40;0.30;;;15.80;99.90;;;;;;5134293;27;20747;-74
2021/06/07 01:26:15;;;;;;;0.40;0.20;;;15.70;99.90;;;;;;5115146;27;20391;-75
2021/06/07 01:28:42;;;;;;;0.40;0.30;;;15.70;99.90;;;;;;5134459;27;20378;-74
2021/06/07 01:31:11;;;;;;;0.40;0.20;;;15.70;99.90;;;;;;5133585;27;20379;-74
2021/06/07 01:33:40;;;;;;;0.40;0.20;;;15.70;99.90;;;;;;5115820;27;20716;-74
2021/06/07 01:36:06;;;;;;;0.40;0.30;;;15.80;99.90;;;;;;5133271;27;20409;-75
2021/06/07 01:38:32;;;;;;;0.40;0.20;;;15.70;99.90;;;;;;5134003;27;20770;-74
2021/06/07 01:41:01;;;;;;;0.40;0.30;;;15.70;99.90;;;;;;5133630;27;20742;-75
2021/06/07 01:43:28;;;;;;;0.40;0.30;;;15.50;99.90;;;;;;5115606;27;20398;-75
2021/06/07 01:45:54;;;;;;;0.40;0.30;;;15.60;99.90;;;;;;5133068;27;20379;-77
2021/06/07 01:48:21;;;;;;;0.40;0.30;;;15.60;99.90;;;;;;5133701;27;20449;-75
2021/06/07 01:50:48;;;;;;;0.40;0.30;;;15.70;99.90;;;;;;5133957;27;20898;-74
2021/06/07 01:53:16;;;;;;;0.40;0.30;;;15.70;99.90;;;;;;5114442;27;20735;-75
2021/06/07 01:55:44;;;;;;;0.40;0.20;;;15.70;99.90;;;;;;5133468;27;20887;-75
2021/06/07 01:58:12;;;;;;;0.40;0.30;;;15.70;99.90;;;;;;5133369;27;20383;-74
2021/06/07 02:00:48;;;;;;;0.40;0.20;;;15.80;99.90;;;;;;5133570;27;20378;-75
2021/06/07 02:03:16;;;;;;;0.40;0.27;;;15.70;99.90;;;;;;5133261;27;20529;-75
2021/06/07 02:05:43;;;;;;;0.40;0.30;;;15.80;99.90;;;;;;5133724;27;20945;-75
2021/06/07 02:08:11;;;;;;;0.40;0.30;;;15.70;99.90;;;;;;5132809;27;20375;-75
2021/06/07 02:10:42;;;;;;;0.40;0.30;;;15.60;99.90;;;;;;5115319;27;20409;-75
2021/06/07 02:13:09;;;;;;;0.40;0.30;;;15.70;99.90;;;;;;5132599;27;20375;-75
2021/06/07 02:15:35;;;;;;;0.40;0.40;;;15.70;99.90;;;;;;5133462;27;20379;-75
2021/06/07 02:18:03;;;;;;;0.40;0.30;;;15.60;99.90;;;;;;5113962;27;20397;-75
2021/06/07 02:20:28;;;;;;;0.40;0.20;;;15.60;99.90;;;;;;5133563;27;20383;-75
2021/06/07 02:22:54;;;;;;;0.40;0.20;;;15.60;99.90;;;;;;5132083;27;20375;-79
2021/06/07 02:25:21;;;;;;;0.40;0.22;;;15.60;99.90;;;;;;5132831;27;20390;-75
2021/06/07 02:27:48;;;;;;;0.40;0.20;;;15.60;99.90;;;;;;5132948;27;20375;-75
2021/06/07 02:30:22;;;;;;;0.40;0.20;;;15.70;99.90;;;;;;5132473;27;20993;-75
2021/06/07 02:32:49;;;;;;;0.40;0.20;;;15.70;99.90;;;;;;5133326;27;20397;-76
2021/06/07 02:35:17;;;;;;;0.40;0.30;;;15.60;99.90;;;;;;5132328;27;20367;-74
2021/06/07 02:37:44;;;;;;;0.40;0.20;;;15.70;99.90;;;;;;5132909;27;20405;-75
2021/06/07 02:40:13;;;;;;;0.40;0.20;;;15.70;99.90;;;;;;5131876;27;20375;-75
2021/06/07 02:42:40;;;;;;;0.40;0.20;;;15.70;99.90;;;;;;5132943;27;20371;-75
2021/06/07 02:45:09;;;;;;;0.40;0.20;;;15.70;99.90;;;;;;5131858;27;20707;-75
2021/06/07 02:47:34;;;;;;;0.40;0.20;;;15.80;99.90;;;;;;5132846;27;20379;-75
2021/06/07 02:50:00;;;;;;;0.40;0.20;;;15.70;99.90;;;;;;5113659;27;20400;-75
2021/06/07 02:52:26;;;;;;;0.40;0.30;;;15.70;99.90;;;;;;5133025;27;20854;-75
2021/06/07 02:54:51;;;;;;;0.40;0.20;;;15.50;99.90;;;;;;5132266;27;21010;-75
2021/06/07 02:57:17;;;;;;;0.40;0.20;;;15.50;99.90;;;;;;5131615;27;20402;-75
2021/06/07 02:59:43;;;;;;;0.40;0.30;;;15.50;99.90;;;;;;5132800;27;20520;-75
2021/06/07 03:02:09;;;;;;;0.40;0.20;;;15.50;99.90;;;;;;5131339;27;20381;-75
2021/06/07 03:04:34;;;;;;;0.40;0.20;;;15.50;99.90;;;;;;5132618;27;20850;-75
2021/06/07 03:07:00;;;;;;;0.40;0.20;;;15.50;99.90;;;;;;5113195;27;20919;-76
2021/06/07 03:09:26;;;;;;;0.40;0.20;;;15.50;99.90;;;;;;5132486;27;20422;-75
2021/06/07 03:11:51;;;;;;;0.40;0.30;;;15.50;99.90;;;;;;5132501;27;20382;-74
2021/06/07 03:14:17;;;;;;;0.40;0.30;;;15.50;99.90;;;;;;5131582;27;20456;-75
2021/06/07 03:16:43;;;;;;;0.40;0.30;;;15.60;99.90;;;;;;5132423;27;20462;-75
2021/06/07 03:19:08;;;;;;;0.40;0.20;;;15.60;99.90;;;;;;5131302;27;20920;-74
2021/06/07 03:21:34;;;;;;;0.40;0.20;;;15.60;99.90;;;;;;5132228;27;20463;-74
2021/06/07 03:24:00;;;;;;;0.40;0.30;;;15.50;99.90;;;;;;5112934;27;20452;-76
2021/06/07 03:26:25;;;;;;;0.40;0.30;;;15.60;99.90;;;;;;5132090;27;20390;-74
2021/06/07 03:28:51;;;;;;;0.40;0.20;;;15.60;99.90;;;;;;5132377;27;20375;-74
2021/06/07 03:31:17;;;;;;;0.40;0.30;;;15.60;99.90;;;;;;5131181;27;20446;-74
2021/06/07 03:33:43;;;;;;;0.40;0.20;;;15.60;99.90;;;;;;5112698;27;20430;-74
2021/06/07 03:36:09;;;;;;;0.40;0.20;;;15.60;99.90;;;;;;5130920;27;20867;-75
2021/06/07 03:38:35;;;;;;;0.40;0.30;;;15.70;99.90;;;;;;5131966;27;20370;-74
2021/06/07 03:41:01;;;;;;;0.40;0.20;;;15.70;99.90;;;;;;5130890;27;20465;-77
2021/06/07 03:43:32;;;;;;;0.40;0.20;;;15.60;99.90;;;;;;5132201;27;20378;-75
2021/06/07 03:45:58;;;;;;;0.40;0.30;;;15.60;99.90;;;;;;5131321;27;20776;-79
2021/06/07 03:48:25;;;;;;;0.40;0.20;;;15.70;99.90;;;;;;5131266;27;20378;-74
2021/06/07 03:50:51;;;;;;;0.40;0.20;;;15.60;99.90;;;;;;5131647;27;20395;-74
2021/06/07 03:53:17;;;;;;;0.40;0.20;;;15.60;99.90;;;;;;5131058;27;20406;-75
2021/06/07 03:55:43;;;;;;;0.40;0.20;;;15.70;99.90;;;;;;5131598;27;20453;-75
2021/06/07 03:58:09;;;;;;;0.40;0.20;;;15.70;99.90;;;;;;5131077;27;20378;-75
2021/06/07 04:00:37;;;;;;;0.40;0.30;;;15.70;99.90;;;;;;5113048;27;20402;-76
2021/06/07 04:03:05;;;;;;;0.40;0.20;;;15.60;99.90;;;;;;5130556;27;20396;-75
2021/06/07 04:05:31;;;;;;;0.40;0.20;;;15.50;99.90;;;;;;5113428;27;20926;-75
2021/06/07 04:07:57;;;;;;;0.40;0.20;;;15.50;99.90;;;;;;5131458;27;20412;-75
2021/06/07 04:10:24;;;;;;;0.40;0.20;;;15.50;99.90;;;;;;5130292;27;20425;-75
2021/06/07 04:12:51;;;;;;;0.40;0.20;;;15.50;99.90;;;;;;5131989;27;20715;-75
2021/06/07 04:15:20;;;;;;;0.40;0.30;;;15.50;99.90;;;;;;5130972;28;20371;-75
2021/06/07 04:17:47;;;;;;;0.40;0.30;;;15.50;99.90;;;;;;5131698;28;20429;-74
2021/06/07 04:20:15;;;;;;;0.40;0.20;;;15.50;99.90;;;;;;5130735;28;20414;-75
2021/06/07 04:22:42;;;;;;;0.40;0.30;;;15.50;99.90;;;;;;5131140;28;20375;-75
2021/06/07 04:25:12;;;;;;;0.40;0.30;;;15.50;99.90;;;;;;5130590;28;20382;-75
2021/06/07 04:27:38;;;;;;;0.40;0.20;;;15.30;99.90;;;;;;5131055;28;20390;-75
2021/06/07 04:30:09;;;;;;;0.40;0.30;;;15.50;99.90;;;;;;5131025;28;20711;-76
2021/06/07 04:32:36;;;;;;;0.40;0.30;;;15.40;99.90;;;;;;5131623;28;20416;-76
2021/06/07 04:35:03;;;;;;;0.40;0.20;;;15.40;99.90;;;;;;5131135;28;20371;-81
2021/06/07 04:37:29;;;;;;;0.40;0.20;;;15.40;99.90;;;;;;5112955;28;20770;-76
2021/06/07 04:39:56;;;;;;;0.40;0.22;;;15.30;99.90;;;;;;5131424;28;20470;-76
2021/06/07 04:42:22;;;;;;;0.40;0.30;;;15.40;99.90;;;;;;5130506;28;20474;-77
2021/06/07 04:44:48;;;;;;;0.40;0.20;;;15.40;99.90;;;;;;5132939;27;20798;-77
2021/06/07 04:47:14;;;;;;;0.40;0.30;;;15.40;99.90;;;;;;5134460;27;20401;-76
2021/06/07 04:49:40;;;;;;;0.40;0.20;;;15.30;99.90;;;;;;5117557;27;20863;-77
2021/06/07 04:52:06;;;;;;;0.40;0.30;;;15.50;99.90;;;;;;5134661;27;20386;-78
2021/06/07 04:54:32;;;;;;;0.40;0.30;;;15.50;99.90;;;;;;5135419;27;20429;-76
2021/06/07 04:56:57;;;;;;;0.40;0.30;;;15.40;99.90;;;;;;5135453;27;20398;-77
2021/06/07 04:59:23;;;;;;;0.40;0.20;;;15.30;99.90;;;;;;5132286;27;20450;-77
2021/06/07 05:01:49;;;;;;;0.40;0.20;;;15.30;99.90;;;;;;5133044;27;20378;-78
2021/06/07 05:04:14;;;;;;;0.40;0.20;;;15.40;99.90;;;;;;5134218;27;20458;-76
2021/06/07 05:06:40;;;;;;;0.40;0.20;;;15.40;99.90;;;;;;5135716;27;20447;-75
2021/06/07 05:09:06;;;;;;;0.40;0.30;;;15.40;99.90;;;;;;5132959;27;20570;-75
2021/06/07 05:11:32;;;;;;;0.40;0.30;;;15.40;99.90;;;;;;5123718;27;20564;-75
2021/06/07 05:13:58;;;;;;;0.40;0.30;;;15.50;99.90;;;;;;5127993;27;20394;-75
2021/06/07 05:16:23;;;;;;;0.40;0.30;;;15.50;99.90;;;;;;5134245;27;20719;-76
2021/06/07 05:18:49;;;;;;;0.40;0.20;;;15.50;99.90;;;;;;5134795;27;20445;-76
2021/06/07 05:21:15;;;;;;;0.40;0.20;;;15.60;99.90;;;;;;5134043;27;20397;-77
2021/06/07 05:23:40;;;;;;;0.40;0.30;;;15.50;99.90;;;;;;5127819;27;20763;-76
2021/06/07 05:26:06;;;;;;;0.40;0.20;;;15.40;99.90;;;;;;5134853;27;20412;-79
2021/06/07 05:28:32;;;;;;;0.40;0.20;;;15.40;99.90;;;;;;5134999;27;20393;-77
2021/06/07 05:30:58;;;;;;;0.40;0.20;;;15.50;99.90;;;;;;5134716;27;20788;-77
2021/06/07 05:33:24;;;;;;;0.40;0.20;;;15.50;99.90;;;;;;5127190;27;20679;-77
2021/06/07 05:35:51;;;;;;;0.40;0.23;;;15.60;99.90;;;;;;5114911;27;20402;-77
2021/06/07 05:38:19;;;;;;;0.40;0.20;;;15.60;99.90;;;;;;5112816;28;20463;-78
2021/06/07 05:40:47;;;;;;;0.40;0.20;;;15.60;99.90;;;;;;5113601;28;20796;-77
2021/06/07 05:43:17;;;;;;;0.40;0.20;;;15.70;99.90;;;;;;5094587;28;20388;-77
2021/06/07 05:45:43;;;;;;;0.40;0.30;;;15.60;99.90;;;;;;5113361;28;20380;-78
2021/06/07 05:48:09;;;;;;;0.40;0.20;;;15.70;99.90;;;;;;5094654;28;20396;-79
2021/06/07 05:50:36;;;;;;;0.40;0.20;;;15.70;99.90;;;;;;5113317;28;20476;-77
2021/06/07 05:53:02;;;;;;;0.40;0.20;;;15.70;99.90;;;;;;5113597;28;20376;-77
2021/06/07 05:55:31;;;;;;;0.40;0.20;;;15.70;99.90;;;;;;5111561;28;20401;-78
2021/06/07 05:58:00;;;;;;;0.40;0.30;;;15.70;99.90;;;;;;5112012;28;20400;-76
2021/06/07 06:00:29;;;;;;;0.40;0.20;;;15.80;99.90;;;;;;5112339;27;20556;-79
2021/06/07 06:02:55;;;;;;;0.40;0.30;;;15.80;99.90;;;;;;5134000;27;20703;-76
2021/06/07 06:05:21;;;;;;;0.40;0.30;;;15.80;99.90;;;;;;5133229;27;20828;-72
2021/06/07 06:07:48;;;;;;;0.40;0.20;;;15.80;99.90;;;;;;5133300;27;20378;-73
2021/06/07 06:10:16;;;;;;;0.40;0.30;;;15.80;99.90;;;;;;5132967;27;20431;-73
2021/06/07 06:12:42;;;;;;;0.40;0.20;;;15.70;99.90;;;;;;5115509;27;20541;-73
2021/06/07 06:15:10;;;;;;;0.40;0.30;;;15.80;99.90;;;;;;5133168;27;20371;-78
2021/06/07 06:17:36;;;;;;;0.40;0.30;;;15.70;99.90;;;;;;5115121;27;20945;-73
2021/06/07 06:20:03;;;;;;;0.40;0.20;;;15.80;99.90;;;;;;5133988;27;20375;-73
2021/06/07 06:22:29;;;;;;;0.40;0.20;;;15.70;99.90;;;;;;5133103;27;20779;-74
2021/06/07 06:24:55;;;;;;;0.40;0.30;;;15.70;99.90;;;;;;5133668;27;20968;-72
2021/06/07 06:27:20;;;;;;;0.40;0.20;;;15.60;99.90;;;;;;5133296;27;20390;-72
2021/06/07 06:29:46;;;;;;;0.40;0.30;;;15.70;99.90;;;;;;5133555;27;20726;-72
2021/06/07 06:32:12;;;;;;;0.40;0.20;;;15.60;99.90;;;;;;5132696;27;20789;-73
2021/06/07 06:34:39;;;;;;;0.40;0.20;;;15.50;99.90;;;;;;5133504;27;20457;-72
2021/06/07 06:37:06;;;;;;;0.40;0.20;;;15.80;99.90;;;;;;5133262;27;20394;-72
2021/06/07 06:39:32;;;;;;;0.40;0.20;;;15.80;99.90;;;;;;5132853;27;20572;-72
2021/06/07 06:41:57;;;;;;;0.40;0.20;;;15.80;99.90;;;;;;5133477;27;20462;-72
2021/06/07 06:44:23;;;;;;;0.40;0.20;;;15.90;99.90;;;;;;5132615;27;20704;-73
2021/06/07 06:46:49;;;;;;;0.40;0.20;;;15.90;99.90;;;;;;5133053;27;20379;-72
2021/06/07 06:49:15;;;;;;;0.40;0.30;;;15.80;99.90;;;;;;5132491;27;20377;-72
2021/06/07 06:51:41;;;;;;;0.40;0.20;;;15.80;99.90;;;;;;5133276;27;20379;-75
2021/06/07 06:54:06;;;;;;;0.40;0.20;;;15.80;99.90;;;;;;5132776;27;20387;-75
2021/06/07 06:56:32;;;;;;;0.40;0.20;;;15.80;99.90;;;;;;5132262;27;20452;-75
2021/06/07 06:58:59;;;;;;;0.40;0.20;;;15.90;99.90;;;;;;5114275;27;20394;-75
2021/06/07 07:01:26;;;;;;;0.40;0.20;;;16.00;99.90;;;;;;5131711;27;20386;-75
2021/06/07 07:03:52;;;;;;;0.40;0.20;;;16.10;99.90;;;;;;5113868;27;20379;-76
2021/06/07 07:06:18;;;;;;;0.40;0.20;;;16.10;99.90;;;;;;5131812;27;20382;-75
2021/06/07 07:08:44;;;;;;;0.40;0.20;;;16.10;99.90;;;;;;5132508;27;20720;-75
2021/06/07 07:11:11;;;;;;;0.40;0.20;;;16.10;99.90;;;;;;5131756;27;20378;-79
2021/06/07 07:13:38;;;;;;;0.40;0.30;;;16.20;99.90;;;;;;5113671;27;20383;-75
2021/06/07 07:16:04;;;;;;;0.40;0.27;;;16.20;99.90;;;;;;5132348;27;20452;-76
2021/06/07 07:18:30;;;;;;;0.40;0.20;;;16.20;99.90;;;;;;5113134;27;20387;-77
2021/06/07 07:20:56;;;;;;;0.40;0.20;;;16.20;99.90;;;;;;5132380;27;20461;-76
2021/06/07 07:23:22;;;;;;;0.40;0.20;;;16.20;99.90;;;;;;5131675;27;20816;-77
2021/06/07 07:25:48;;;;;;;0.40;0.20;;;16.30;99.90;;;;;;5132444;27;20374;-76
2021/06/07 07:28:14;;;;;;;0.40;0.20;;;16.40;99.90;;;;;;5113281;27;20467;-78
2021/06/07 07:30:41;;;;;;;0.40;0.22;;;16.40;99.90;;;;;;5113978;27;20421;-77
2021/06/07 07:33:07;;;;;;;0.40;0.30;;;16.50;99.90;;;;;;5114037;27;20378;-75
2021/06/07 07:35:34;;;;;;;0.40;0.20;;;16.40;99.90;;;;;;5131551;27;20483;-78
2021/06/07 07:38:00;;;;;;;0.40;0.20;;;16.30;99.90;;;;;;5113638;27;20398;-76
2021/06/07 07:40:27;;;;;;;0.40;0.20;;;16.20;99.90;;;;;;5131470;27;20414;-76
2021/06/07 07:42:56;;;;;;;0.40;0.30;;;16.30;99.90;;;;;;5132754;27;20383;-77
2021/06/07 07:45:26;;;;;;;0.40;0.20;;;16.20;99.90;;;;;;5112960;27;20383;-78
2021/06/07 07:47:56;;;;;;;0.40;0.20;;;16.10;99.90;;;;;;5113869;27;20481;-78
2021/06/07 07:50:22;;;;;;;0.40;0.20;;;16.30;99.90;;;;;;5131803;27;20371;-75
2021/06/07 07:52:49;;;;;;;0.40;0.20;;;16.30;99.90;;;;;;5132130;27;20374;-76
2021/06/07 07:55:21;;;;;;;0.50;0.40;;;16.40;99.90;;;;;;5131005;27;20403;-82
2021/06/07 07:57:50;;;;;;;0.40;0.30;;;16.30;99.90;;;;;;5132180;27;20762;-75
2021/06/07 08:00:18;;;;;;;0.40;0.30;;;16.30;99.90;;;;;;5131482;27;20385;-77
2021/06/07 08:02:44;;;;;;;0.40;0.20;;;16.30;99.90;;;;;;5131925;27;20383;-75
2021/06/07 08:05:10;;;;;;;0.40;0.20;;;16.30;99.90;;;;;;5131687;27;20897;-74
2021/06/07 08:07:36;;;;;;;0.40;0.20;;;16.30;99.90;;;;;;5131366;27;20385;-75
2021/06/07 08:10:03;;;;;;;0.40;0.30;;;16.30;99.90;;;;;;5131617;27;20379;-74
2021/06/07 08:12:29;;;;;;;0.40;0.30;;;16.30;99.90;;;;;;5112731;28;20424;-74
2021/06/07 08:14:54;;;;;;;0.40;0.20;;;16.30;99.90;;;;;;5131855;27;20459;-75
2021/06/07 08:17:20;;;;;;;0.40;0.20;;;16.30;99.90;;;;;;5112636;28;20867;-75
2021/06/07 08:19:46;;;;;;;0.40;0.20;;;16.30;99.90;;;;;;5131198;27;20383;-74
2021/06/07 08:22:12;;;;;;;0.40;0.20;;;16.30;99.90;;;;;;5113412;28;20389;-75
2021/06/07 08:24:38;;;;;;;0.40;0.20;;;16.40;99.90;;;;;;5131390;28;20869;-75
2021/06/07 08:27:05;;;;;;;0.40;0.30;;;16.30;99.90;;;;;;5131559;28;20378;-75
2021/06/07 08:29:31;;;;;;;0.40;0.20;;;16.40;99.90;;;;;;5112453;28;20724;-75
2021/06/07 08:31:57;;;;;;;0.40;0.20;;;16.50;99.90;;;;;;5131508;28;20381;-75
2021/06/07 08:34:23;;;;;;;0.40;0.30;;;16.50;99.90;;;;;;5130823;28;20453;-75
2021/06/07 08:36:49;;;;;;;0.40;0.20;;;16.60;99.90;;;;;;5113227;28;20451;-76
2021/06/07 08:39:15;;;;;;;0.40;0.30;;;16.60;99.90;;;;;;5131204;28;20379;-81
2021/06/07 08:41:40;;;;;;;0.40;0.30;;;16.70;99.90;;;;;;5131405;28;20371;-76
2021/06/07 08:44:06;;;;;;;0.40;0.20;;;16.60;99.90;;;;;;5131913;28;20754;-76
2021/06/07 08:46:32;;;;;;;0.40;0.30;;;16.70;99.90;;;;;;5112442;28;20394;-75
2021/06/07 08:48:58;;;;;;;0.40;0.20;;;16.80;99.90;;;;;;5113477;28;20863;-76
2021/06/07 08:51:24;;;;;;;0.40;0.30;;;16.80;99.90;;;;;;5130738;28;20371;-76
2021/06/07 08:53:51;;;;;;;0.40;0.20;;;16.70;99.90;;;;;;5113071;28;20398;-75
2021/06/07 08:56:17;;;;;;;0.40;0.20;;;16.60;99.90;;;;;;5131056;28;20456;-79
2021/06/07 08:58:43;;;;;;;0.40;0.30;;;16.60;99.90;;;;;;5131280;28;20367;-76
2021/06/07 09:01:09;;;;;;;0.40;0.20;;;16.80;99.90;;;;;;5131272;28;20382;-76
2021/06/07 09:03:37;;;;;;;0.40;0.20;;;16.80;99.90;;;;;;5130644;28;20852;-77
2021/06/07 09:06:04;;;;;;;0.40;0.20;;;16.70;99.90;;;;;;5131838;28;20720;-76
2021/06/07 09:08:36;;;;;;;0.40;0.20;;;16.70;99.90;;;;;;5130605;28;20367;-76
2021/06/07 09:11:13;;;;;;;0.40;0.27;;;16.70;99.90;;;;;;5131244;28;20388;-75
2021/06/07 09:13:40;;;;;;;0.40;0.30;;;16.80;99.90;;;;;;5130683;28;20383;-75
2021/06/07 09:16:06;;;;;;;0.40;0.30;;;16.90;99.90;;;;;;5112746;28;20414;-75
2021/06/07 09:18:43;;;;;;;0.40;0.20;;;17.10;99.90;;;;;;5112117;28;20858;-74
2021/06/07 09:21:19;;;;;;;0.40;0.20;;;17.20;99.90;;;;;;5131041;28;20444;-75
2021/06/07 09:23:49;;;;;;;0.40;0.30;;;17.30;99.90;;;;;;5130935;28;20447;-74
2021/06/07 09:26:32;;;;;;;0.40;0.30;;;17.30;99.90;;;;;;5131077;28;20394;-75
2021/06/07 09:29:01;;;;;;;0.40;0.20;;;17.40;99.90;;;;;;5131167;28;20378;-75
2021/06/07 09:31:35;;;;;;;0.50;0.40;;;17.50;99.90;;;;;;5112199;27;20477;-75
2021/06/07 09:34:07;;;;;;;0.40;0.30;;;17.40;99.90;;;;;;5116622;27;20743;-74
2021/06/07 09:36:34;;;;;;;0.40;0.22;;;17.20;99.90;;;;;;5133565;27;20404;-75
2021/06/07 09:39:09;;;;;;;0.40;0.28;;;17.20;99.90;;;;;;5134628;27;20434;-74
2021/06/07 09:41:56;;;;;;;0.40;0.20;;;17.20;99.90;;;;;;5115533;27;20734;-75
2021/06/07 09:44:27;;;;;;;0.40;0.30;;;17.20;99.90;;;;;;5133931;27;20727;-76
2021/06/07 09:47:23;;;;;;;0.40;0.30;;;17.20;99.90;;;;;;5134463;27;20432;-76
2021/06/07 09:49:54;;;;;;;0.40;0.20;;;17.20;99.90;;;;;;5116024;27;20390;-75
2021/06/07 09:52:23;;;;;;;0.40;0.20;;;17.20;99.90;;;;;;5134346;27;20481;-79
2021/06/07 09:55:01;;;;;;;0.40;0.30;;;17.10;99.90;;;;;;5112368;28;20409;-75
2021/06/07 09:57:48;;;;;;;0.40;0.20;;;17.10;99.90;;;;;;5112945;28;20415;-75
2021/06/07 10:00:51;;;;;;;0.40;0.20;;;17.10;99.90;;;;;;5112382;28;20391;-75
2021/06/07 10:03:27;;;;;;;0.40;0.30;;;17.10;99.90;;;;;;5093413;28;20813;-75
2021/06/07 10:06:00;;;;;;;0.40;0.30;;;16.90;99.90;;;;;;5091921;28;20397;-75
2021/06/07 10:08:39;;;;;;;0.40;0.30;;;16.90;99.90;;;;;;5092338;28;20392;-75
2021/06/07 10:11:25;;;;;;;0.40;0.30;;;16.90;99.90;;;;;;5091937;28;20870;-74
2021/06/07 10:14:04;;;;;;;0.40;0.30;;;16.90;99.90;;;;;;5093281;28;20383;-75
2021/06/07 10:17:01;;;;;;;0.40;0.30;;;17.00;99.90;;;;;;5092187;28;20754;-76
2021/06/07 10:19:40;;;;;;;0.40;0.40;;;17.00;99.90;;;;;;5092314;28;20722;-76
2021/06/07 10:22:06;;;;;;;0.40;0.20;;;17.00;99.90;;;;;;5095568;28;20398;-74
2021/06/07 10:24:32;;;;;;;0.40;0.20;;;17.00;99.90;;;;;;5101016;28;20408;-74
2021/06/07 10:26:59;;;;;;;0.40;0.30;;;17.00;99.90;;;;;;5091452;28;20404;-73
2021/06/07 10:29:36;;;;;;;0.40;0.20;;;17.00;99.90;;;;;;5091866;28;20499;-75
2021/06/07 10:32:17;;;;;;;0.40;0.30;;;17.10;99.90;;;;;;5092683;28;20378;-75
2021/06/07 10:34:46;;;;;;;0.40;0.30;;;17.10;99.90;;;;;;5092007;28;20373;-74
2021/06/07 10:37:12;;;;;;;0.40;0.30;;;14.90;99.90;;;;;;5092554;28;20410;-76
2021/06/07 10:39:37;;;;;;;0.40;0.20;;;17.00;99.90;;;;;;5090583;28;20393;-74
2021/06/07 10:42:09;;;;;;;0.40;0.30;;;17.00;99.90;;;;;;5091754;28;20441;-74
2021/06/07 10:44:50;;;;;;;0.40;0.20;;;17.10;99.90;;;;;;5091781;28;20427;-74
2021/06/07 10:47:22;;;;;;;0.40;0.20;;;17.10;99.90;;;;;;5092159;28;20390;-74
2021/06/07 10:50:07;;;;;;;0.40;0.30;;;17.20;99.90;;;;;;5092054;28;20386;-74
2021/06/07 10:52:54;;;;;;;0.40;0.20;;;17.30;99.90;;;;;;5091583;28;20386;-74
2021/06/07 10:55:38;;;;;;;0.40;0.30;;;17.40;99.90;;;;;;5102469;28;20412;-75
2021/06/07 10:58:11;;;;;;;0.40;0.30;;;17.30;99.90;;;;;;5112677;28;20465;-76
2021/06/07 11:00:42;;;;;;;0.40;0.20;;;17.20;99.90;;;;;;5079301;27;20399;-75
2021/06/07 11:03:21;;;;;;;0.40;0.20;;;17.20;99.90;;;;;;5120675;27;20772;-75
2021/06/07 11:05:49;;;;;;;0.40;0.20;;;17.30;99.90;;;;;;5103238;27;20390;-76
2021/06/07 11:08:28;;;;;;;0.40;0.30;;;17.30;99.90;;;;;;5132783;27;20383;-75
2021/06/07 11:11:16;;;;;;;0.40;0.30;;;17.20;99.90;;;;;;5114156;27;20789;-76
2021/06/07 11:13:50;;;;;;;0.40;0.20;;;17.20;99.90;;;;;;5132027;27;20382;-75
2021/06/07 11:16:29;;;;;;;0.40;0.20;;;17.30;99.90;;;;;;5132319;27;20463;-76
2021/06/07 11:19:00;;;;;;;0.40;0.30;;;17.10;99.90;;;;;;5113816;27;20382;-76
2021/06/07 11:21:51;;;;;;;0.40;0.20;;;17.20;99.90;;;;;;5113574;27;20421;-77
2021/06/07 11:24:29;;;;;;;0.40;0.20;;;17.20;99.90;;;;;;5131647;27;20391;-75
2021/06/07 11:26:55;;;;;;;0.40;0.20;;;17.30;99.90;;;;;;5132096;27;20375;-75
2021/06/07 11:29:21;;;;;;;0.40;0.20;;;17.30;99.90;;;;;;5132135;27;20374;-75
2021/06/07 11:31:50;;;;;;;0.40;0.20;;;17.30;99.90;;;;;;5131107;27;20610;-74
2021/06/07 11:34:39;;;;;;;0.40;0.30;;;17.30;99.90;;;;;;5127437;27;20517;-75
2021/06/07 11:37:07;;;;;;;0.40;0.30;;;17.30;99.90;;;;;;5128099;27;20410;-76
2021/06/07 11:39:41;;;;;;;0.40;0.40;;;17.30;99.90;;;;;;5103295;27;20391;-76
2021/06/07 11:42:09;;;;;;;0.40;0.30;;;17.00;99.90;;;;;;5120199;27;20390;-77
2021/06/07 11:44:44;;;;;;;0.40;0.20;;;17.00;99.90;;;;;;5113003;27;20389;-74
2021/06/07 11:47:14;;;;;;;0.40;0.20;;;17.10;99.90;;;;;;5125500;27;20390;-76
2021/06/07 11:49:58;;;;;;;0.40;0.30;;;17.10;99.90;;;;;;5128749;27;20385;-77
2021/06/07 11:52:33;;;;;;;0.40;0.20;;;17.10;99.90;;;;;;5127696;27;20894;-75
2021/06/07 11:55:15;;;;;;;0.40;0.30;;;17.10;99.90;;;;;;5120547;27;20414;-77
2021/06/07 11:57:41;;;;;;;0.40;0.20;;;17.10;99.90;;;;;;5122580;27;20492;-74
2021/06/07 12:00:07;;;;;;;0.40;0.40;;;17.00;99.90;;;;;;5121436;27;20503;-77
2021/06/07 12:02:33;;;;;;;0.40;0.28;;;17.00;99.90;;;;;;5130835;27;20428;-77
2021/06/07 12:05:08;;;;;;;0.40;0.20;;;17.00;99.90;;;;;;5131854;27;20855;-76
2021/06/07 12:07:36;;;;;;;0.40;0.28;;;17.00;99.90;;;;;;5112670;27;20429;-78
2021/06/07 12:10:05;;;;;;;0.40;0.20;;;17.80;99.90;;;;;;5113596;27;20386;-76
2021/06/07 12:12:31;;;;;;;0.40;0.30;;;17.00;99.90;;;;;;5130756;27;20409;-76
2021/06/07 12:15:08;;;;;;;0.40;0.30;;;16.90;99.90;;;;;;5131875;27;20408;-77
2021/06/07 12:17:42;;;;;;;0.40;0.30;;;16.90;99.90;;;;;;5125943;27;20441;-78
2021/06/07 12:20:08;;;;;;;0.40;0.30;;;17.00;99.90;;;;;;5097568;28;20391;-74
2021/06/07 12:22:35;;;;;;;0.40;0.20;;;17.00;99.90;;;;;;5116553;28;20379;-77
2021/06/07 12:30:25;;;;;;;0.40;0.20;;;17.10;99.90;;;;;;5115450;28;20745;-75
2021/06/07 12:32:53;;;;;;;0.40;0.20;;;17.00;99.90;;;;;;5119657;28;20858;-75
2021/06/07 12:35:24;;;;;;;0.40;0.20;;;17.10;99.90;;;;;;5103185;28;20404;-75
2021/06/07 12:37:52;;;;;;;0.40;0.20;;;17.00;99.90;;;;;;5110318;28;20408;-76
2021/06/07 12:40:42;;;;;;;0.40;0.20;;;16.90;99.90;;;;;;5093080;28;20891;-76
2021/06/07 12:43:08;;;;;;;0.40;0.20;;;17.00;99.90;;;;;;5110994;28;20463;-74
2021/06/07 12:45:38;;;;;;;0.40;0.30;;;16.90;99.90;;;;;;5092456;28;20811;-74
2021/06/07 12:48:25;;;;;;;0.40;0.20;;;17.00;99.90;;;;;;5112794;28;20385;-76
2021/06/07 12:51:02;;;;;;;0.40;0.30;;;17.00;99.90;;;;;;5130144;28;20379;-76
2021/06/07 12:53:34;;;;;;;0.40;0.20;;;17.10;99.90;;;;;;5107954;28;20404;-76
2021/06/07 12:56:04;;;;;;;0.40;0.28;;;17.10;99.90;;;;;;5107940;28;20408;-76
2021/06/07 12:58:31;;;;;;;0.40;0.20;;;17.20;99.90;;;;;;5108401;28;20387;-78
2021/06/07 13:01:01;;;;;;;0.40;0.30;;;17.30;99.90;;;;;;5112948;28;20413;-80